< < Back
Terminal Aerodrome Forecast


Current Version              Previous Versions:   1  2  3  4  5  6  7  8  9  

Terminal Aerodrome Forecast

420
FTUS42 KCHS 201700
TAFSAV
TAF
KSAV 201732Z 2018/2118 23007KT P6SM FEW250
     FM210000 VRB03KT P6SM FEW250
     FM211400 01007KT P6SM SCT250=



Latest METAR

659
SAUS80 KWBC 211800 RRA
MTRSAV
METAR KSAV 211753Z 05005KT 10SM CLR 22/M03 A3035 RMK AO2 SLP277
T02171033 10217 20022 58014


USA.gov is the U.S. government's official web portal to all federal, state and local government web resources and services.